Time;durP1;ratioP1;P1;durP2;ratioP2;P2;SDS_P1;SDS_P2;PMS_P1;PMS_P2;Temp;Humidity;BMP_temperature;BMP_pressure;BME280_temperature;BME280_humidity;BME280_pressure;Samples;Min_cycle;Max_cycle;Signal;HPM_P1;HPM_P2
2023/01/30 00:02:05;;;;;;;9.40;9.10;;;-3.10;99.90;;;;;;6240634;22;20224;-85
2023/01/30 00:04:39;;;;;;;9.30;9.00;;;-3.10;99.90;;;;;;6246556;22;20191;-85
2023/01/30 00:07:07;;;;;;;9.20;8.90;;;-3.00;99.90;;;;;;6247468;22;20187;-85
2023/01/30 00:09:37;;;;;;;9.47;9.17;;;-3.10;99.90;;;;;;6244888;22;20183;-84
2023/01/30 00:12:06;;;;;;;9.20;8.90;;;-3.10;99.90;;;;;;6244204;22;20240;-85
2023/01/30 00:14:34;;;;;;;9.20;8.90;;;-3.10;99.90;;;;;;6244617;22;20214;-84
2023/01/30 00:17:04;;;;;;;9.37;9.07;;;-3.10;99.90;;;;;;6245372;23;20196;-84
2023/01/30 00:19:33;;;;;;;9.20;8.90;;;-3.20;99.90;;;;;;6243844;23;20191;-85
2023/01/30 00:22:12;;;;;;;9.00;8.70;;;-3.10;99.90;;;;;;6240851;23;20195;-85
2023/01/30 00:24:41;;;;;;;9.00;8.70;;;-3.10;99.90;;;;;;6234523;22;20230;-85
2023/01/30 00:27:10;;;;;;;9.20;8.90;;;-3.00;99.90;;;;;;6228647;23;20192;-85
2023/01/30 00:29:40;;;;;;;9.10;8.80;;;-3.00;99.90;;;;;;6231531;23;20222;-85
2023/01/30 00:32:09;;;;;;;9.20;8.90;;;-3.00;99.90;;;;;;6229576;23;20227;-85
2023/01/30 00:34:41;;;;;;;9.23;8.93;;;-3.10;99.90;;;;;;6238014;22;20250;-85
2023/01/30 00:37:13;;;;;;;8.83;8.60;;;-3.00;99.90;;;;;;6230308;23;20214;-85
2023/01/30 00:39:41;;;;;;;9.50;9.20;;;-3.00;99.90;;;;;;6229099;23;20194;-85
2023/01/30 00:47:45;;;;;;;9.03;8.73;;;-3.10;99.90;;;;;;6228942;23;20187;-84
2023/01/30 00:50:12;;;;;;;9.13;8.83;;;-3.10;99.90;;;;;;6229511;23;20200;-84
2023/01/30 00:52:51;;;;;;;9.10;8.80;;;-3.00;99.90;;;;;;6229752;23;20191;-84
2023/01/30 00:55:21;;;;;;;9.03;8.73;;;-3.00;99.90;;;;;;6229772;23;20183;-84
2023/01/30 00:57:50;;;;;;;8.97;8.70;;;-2.90;99.90;;;;;;6228915;22;20201;-84
2023/01/30 01:00:19;;;;;;;8.87;8.63;;;-2.80;99.90;;;;;;6228986;23;20225;-84
2023/01/30 01:02:48;;;;;;;9.07;8.77;;;-2.80;99.90;;;;;;6231268;23;20302;-84
2023/01/30 01:05:19;;;;;;;8.97;8.67;;;-2.70;99.90;;;;;;6235007;23;20211;-84
2023/01/30 01:08:01;;;;;;;9.03;8.73;;;-2.70;99.90;;;;;;6238300;23;20199;-84
2023/01/30 01:13:13;;;;;;;9.07;8.77;;;-2.60;99.90;;;;;;6227845;22;20211;-85
2023/01/30 01:15:43;;;;;;;9.37;9.07;;;-2.60;99.90;;;;;;6228576;23;20279;-85
2023/01/30 01:18:14;;;;;;;9.10;8.80;;;-2.50;99.90;;;;;;6229631;23;20199;-86
2023/01/30 01:20:42;;;;;;;9.07;8.77;;;-2.40;99.90;;;;;;6229493;23;20537;-85
2023/01/30 01:23:13;;;;;;;8.73;8.53;;;-2.20;99.90;;;;;;6228996;22;20189;-85
2023/01/30 01:25:48;;;;;;;9.30;9.00;;;-2.10;99.90;;;;;;6228052;23;20214;-85
2023/01/30 01:28:20;;;;;;;8.90;8.63;;;-1.90;99.90;;;;;;6229235;23;20198;-84
2023/01/30 01:30:50;;;;;;;9.03;8.73;;;-1.80;99.90;;;;;;6228986;23;20196;-84
2023/01/30 01:33:17;;;;;;;9.13;8.83;;;-1.70;99.90;;;;;;6229132;22;20206;-85
2023/01/30 01:35:47;;;;;;;9.00;8.70;;;-1.60;99.90;;;;;;6228889;22;20187;-84
2023/01/30 01:38:18;;;;;;;9.00;8.70;;;-1.40;99.90;;;;;;6228991;23;20251;-83
2023/01/30 01:41:00;;;;;;;9.20;8.90;;;-1.30;99.90;;;;;;6229023;23;20191;-84
2023/01/30 01:43:41;;;;;;;9.27;8.97;;;-1.20;99.90;;;;;;6228715;22;20204;-84
2023/01/30 01:46:19;;;;;;;9.17;8.87;;;-1.00;99.90;;;;;;6227461;23;20212;-84
2023/01/30 01:48:52;;;;;;;8.83;8.63;;;-1.00;99.90;;;;;;6228229;23;20227;-84
2023/01/30 01:51:28;;;;;;;9.13;8.83;;;-0.90;99.90;;;;;;6228543;23;20240;-84
2023/01/30 01:54:05;;;;;;;9.20;8.90;;;-0.80;99.90;;;;;;6228233;22;20209;-85
2023/01/30 01:56:34;;;;;;;9.13;8.83;;;-0.70;99.90;;;;;;6228016;23;20290;-84
2023/01/30 01:59:06;;;;;;;9.13;8.83;;;-0.70;99.90;;;;;;6228548;23;20197;-85
2023/01/30 02:01:34;;;;;;;9.23;8.93;;;-0.70;99.90;;;;;;6228398;23;20245;-84
2023/01/30 02:04:05;;;;;;;9.23;8.93;;;-0.60;99.90;;;;;;6228532;22;20199;-84
2023/01/30 02:06:33;;;;;;;9.40;9.10;;;-0.60;99.90;;;;;;6227870;23;20194;-84
2023/01/30 02:09:11;;;;;;;9.13;8.83;;;-0.60;99.90;;;;;;6228744;23;20228;-85
2023/01/30 02:11:48;;;;;;;9.30;9.00;;;-0.60;99.90;;;;;;6227480;22;20237;-84
2023/01/30 02:14:18;;;;;;;9.00;8.70;;;-0.60;99.90;;;;;;6227643;22;20287;-84
2023/01/30 02:16:48;;;;;;;9.33;9.03;;;-0.60;99.90;;;;;;6228222;23;20191;-84
2023/01/30 02:19:33;;;;;;;9.00;8.70;;;-0.60;99.90;;;;;;6228163;22;20261;-84
2023/01/30 02:22:50;;;;;;;9.40;9.10;;;-0.60;99.90;;;;;;6227915;23;20233;-84
2023/01/30 02:26:02;;;;;;;9.40;9.10;;;-0.60;99.90;;;;;;6227608;22;20236;-84
2023/01/30 02:29:23;;;;;;;8.90;8.70;;;-0.60;99.90;;;;;;6227932;23;20203;-84
2023/01/30 02:32:02;;;;;;;8.90;8.70;;;-0.60;99.90;;;;;;6200155;22;20276;-84
2023/01/30 02:34:45;;;;;;;9.17;8.87;;;-0.60;99.90;;;;;;6228466;22;20241;-84
2023/01/30 02:37:29;;;;;;;8.73;8.53;;;-0.50;99.90;;;;;;6228190;23;20197;-84
2023/01/30 02:40:17;;;;;;;9.10;8.80;;;-0.50;99.90;;;;;;6228381;23;20193;-86
2023/01/30 02:42:56;;;;;;;8.93;8.70;;;-0.50;99.90;;;;;;6228774;23;20208;-84
2023/01/30 02:45:34;;;;;;;9.10;8.80;;;-0.50;99.90;;;;;;6227924;23;20195;-84
2023/01/30 02:48:12;;;;;;;9.10;8.80;;;-0.40;99.90;;;;;;6228465;23;20264;-84
2023/01/30 02:50:49;;;;;;;8.93;8.73;;;-0.40;99.90;;;;;;6227500;23;20234;-84
2023/01/30 02:53:19;;;;;;;9.17;8.87;;;-0.30;99.90;;;;;;6227303;22;20202;-85
2023/01/30 02:55:48;;;;;;;8.77;8.57;;;-0.30;99.90;;;;;;6227332;23;20206;-85
2023/01/30 02:58:20;;;;;;;8.60;8.40;;;-0.30;99.90;;;;;;6227935;22;20198;-85
2023/01/30 03:01:13;;;;;;;8.93;8.70;;;-0.30;99.90;;;;;;6228015;23;20233;-85
2023/01/30 03:04:17;;;;;;;8.87;8.67;;;-0.20;99.90;;;;;;6227749;22;20266;-84
2023/01/30 03:07:04;;;;;;;8.90;8.70;;;-0.20;99.90;;;;;;6227249;22;20220;-85
2023/01/30 03:09:43;;;;;;;8.93;8.73;;;-0.10;99.90;;;;;;6227211;23;20198;-85
2023/01/30 03:12:21;;;;;;;9.10;8.80;;;-0.10;99.90;;;;;;6227601;23;20249;-85
2023/01/30 03:14:59;;;;;;;8.80;8.60;;;-0.10;99.90;;;;;;6228558;22;20210;-85
2023/01/30 03:17:28;;;;;;;8.70;8.50;;;-0.10;99.90;;;;;;6227386;23;20199;-85
2023/01/30 03:20:07;;;;;;;8.97;8.77;;;0.00;99.90;;;;;;6227335;23;20205;-85
2023/01/30 03:22:36;;;;;;;9.10;8.80;;;0.00;99.90;;;;;;6227917;23;20186;-85
2023/01/30 03:25:06;;;;;;;9.10;8.80;;;0.00;99.90;;;;;;6227134;23;20209;-85
2023/01/30 03:27:38;;;;;;;8.90;8.70;;;0.00;99.90;;;;;;6227484;23;20257;-84
2023/01/30 03:30:07;;;;;;;9.40;9.10;;;0.00;99.90;;;;;;6227749;22;20195;-84
2023/01/30 03:32:35;;;;;;;8.93;8.73;;;0.00;99.90;;;;;;6227905;23;20187;-85
2023/01/30 03:35:14;;;;;;;8.77;8.57;;;0.00;99.90;;;;;;6227715;22;20199;-85
2023/01/30 03:37:42;;;;;;;8.87;8.67;;;0.00;99.90;;;;;;6227670;23;20268;-84
2023/01/30 03:40:12;;;;;;;8.80;8.60;;;-0.10;99.90;;;;;;6226684;23;20195;-85
2023/01/30 03:42:42;;;;;;;8.73;8.53;;;0.00;99.90;;;;;;6226750;23;20209;-85
2023/01/30 03:45:11;;;;;;;8.77;8.57;;;0.00;99.90;;;;;;6226200;22;20240;-85
2023/01/30 03:47:40;;;;;;;8.80;8.60;;;0.00;99.90;;;;;;6226679;23;20702;-85
2023/01/30 03:50:18;;;;;;;9.03;8.80;;;0.00;99.90;;;;;;6227203;23;20230;-85
2023/01/30 03:52:47;;;;;;;8.80;8.60;;;0.00;99.90;;;;;;6226750;23;20271;-85
2023/01/30 03:55:16;;;;;;;8.80;8.60;;;0.10;99.90;;;;;;6227274;22;20234;-84
2023/01/30 03:57:46;;;;;;;8.70;8.50;;;0.10;99.90;;;;;;6227134;23;20198;-84
2023/01/30 04:00:17;;;;;;;8.90;8.70;;;0.10;99.90;;;;;;6226756;23;20282;-84
2023/01/30 04:02:47;;;;;;;9.00;8.70;;;0.10;99.90;;;;;;6229539;23;20190;-84
2023/01/30 04:05:18;;;;;;;8.90;8.70;;;0.10;99.90;;;;;;6242046;22;20198;-84
2023/01/30 04:07:45;;;;;;;8.53;8.33;;;0.10;99.90;;;;;;6230934;23;20265;-84
2023/01/30 04:10:14;;;;;;;8.97;8.73;;;0.10;99.90;;;;;;6230974;23;20195;-85
2023/01/30 04:12:43;;;;;;;8.77;8.57;;;0.10;99.90;;;;;;6229111;23;20205;-85
2023/01/30 04:15:12;;;;;;;8.67;8.47;;;0.10;99.90;;;;;;6228578;22;20234;-85
2023/01/30 04:17:43;;;;;;;8.77;8.57;;;0.20;99.90;;;;;;6228131;22;20228;-85
2023/01/30 04:20:12;;;;;;;8.70;8.50;;;0.10;99.90;;;;;;6228838;23;20192;-85
2023/01/30 04:22:43;;;;;;;8.70;8.50;;;0.20;99.90;;;;;;6228600;23;20288;-84
2023/01/30 04:25:11;;;;;;;8.90;8.70;;;0.20;99.90;;;;;;6228860;22;20276;-85
2023/01/30 04:27:39;;;;;;;8.97;8.77;;;0.20;99.90;;;;;;6228302;23;20211;-84
2023/01/30 04:30:09;;;;;;;8.80;8.60;;;0.20;99.90;;;;;;6229667;23;20202;-84
2023/01/30 04:32:40;;;;;;;9.10;8.80;;;0.20;99.90;;;;;;6228881;23;20298;-85
2023/01/30 04:35:10;;;;;;;8.77;8.57;;;0.20;99.90;;;;;;6229272;22;20230;-84
2023/01/30 04:37:39;;;;;;;8.50;8.30;;;0.30;99.90;;;;;;6228550;23;20205;-84
2023/01/30 04:40:18;;;;;;;8.70;8.50;;;0.30;99.90;;;;;;6228228;23;20681;-84
2023/01/30 04:42:47;;;;;;;8.70;8.50;;;0.30;99.90;;;;;;6229229;23;20218;-84
2023/01/30 04:45:18;;;;;;;8.90;8.70;;;0.30;99.90;;;;;;6231922;22;20198;-84
2023/01/30 04:47:45;;;;;;;8.83;8.63;;;0.30;99.90;;;;;;6238339;23;20213;-84
2023/01/30 04:50:15;;;;;;;8.90;8.70;;;0.30;99.90;;;;;;6238130;22;20211;-84
2023/01/30 04:52:45;;;;;;;8.47;8.27;;;0.30;99.90;;;;;;6230644;23;20194;-84
2023/01/30 04:55:24;;;;;;;8.90;8.70;;;0.30;99.90;;;;;;6228851;22;20203;-84
2023/01/30 04:57:53;;;;;;;8.80;8.60;;;0.40;99.90;;;;;;6229852;23;20218;-84
2023/01/30 05:00:21;;;;;;;9.30;9.00;;;0.40;99.90;;;;;;6228172;23;20237;-84
2023/01/30 05:02:51;;;;;;;9.20;8.90;;;0.30;99.90;;;;;;6228132;23;20199;-84
2023/01/30 05:05:20;;;;;;;9.10;8.80;;;0.40;99.90;;;;;;6228298;23;20191;-84
2023/01/30 05:07:50;;;;;;;9.40;9.10;;;0.30;99.90;;;;;;6228221;23;20253;-84
2023/01/30 05:10:22;;;;;;;9.07;8.77;;;0.30;99.90;;;;;;6228480;22;20245;-85
2023/01/30 05:12:49;;;;;;;8.80;8.60;;;0.30;99.90;;;;;;6229008;23;20206;-85
2023/01/30 05:15:20;;;;;;;8.70;8.50;;;0.20;99.90;;;;;;6228230;22;20258;-85
2023/01/30 05:17:48;;;;;;;9.10;8.80;;;0.30;99.90;;;;;;6229230;23;20195;-85
2023/01/30 05:20:18;;;;;;;8.80;8.60;;;0.20;99.90;;;;;;6228226;23;20201;-84
2023/01/30 05:22:46;;;;;;;8.93;8.70;;;0.20;99.90;;;;;;6227962;23;20282;-84
2023/01/30 05:25:17;;;;;;;8.60;8.40;;;0.30;99.90;;;;;;6227536;22;20199;-84
2023/01/30 05:27:48;;;;;;;8.97;8.70;;;0.20;99.90;;;;;;6228567;23;20194;-83
2023/01/30 05:30:25;;;;;;;8.97;8.70;;;0.20;99.90;;;;;;6228466;22;20195;-84
2023/01/30 05:32:53;;;;;;;8.80;8.60;;;0.20;99.90;;;;;;6228277;23;20230;-84
2023/01/30 05:35:23;;;;;;;9.17;8.87;;;0.20;99.90;;;;;;6227773;23;20253;-85
2023/01/30 05:37:53;;;;;;;8.90;8.70;;;0.20;99.90;;;;;;6228093;23;20190;-84
2023/01/30 05:40:21;;;;;;;8.80;8.60;;;0.10;99.90;;;;;;6227934;23;20251;-84
2023/01/30 09:20:20;;;;;;;8.53;8.33;;;0.80;99.90;;;;;;6080791;23;20212;-87
2023/01/30 09:22:50;;;;;;;8.53;8.33;;;0.70;99.90;;;;;;6121660;23;20288;-82
2023/01/30 09:25:40;;;;;;;8.57;8.37;;;0.70;99.90;;;;;;6232659;23;20188;-88
2023/01/30 10:19:49;;;;;;;9.10;8.80;;;1.30;99.90;;;;;;5834297;24;20259;-86
2023/01/30 10:29:57;;;;;;;9.40;9.10;;;1.50;99.90;;;;;;5876038;24;20197;-87
2023/01/30 10:41:10;;;;;;;9.33;9.03;;;1.50;99.90;;;;;;5973481;23;20197;-87
2023/01/30 10:44:52;;;;;;;;;;;;;;;;;;;;;
2023/01/30 10:55:50;;;;;;;9.50;9.20;;;1.70;99.90;;;;;;6125413;23;20195;-89
2023/01/30 11:44:31;;;;;;;10.00;9.70;;;2.20;99.90;;;;;;6205763;22;20195;-85
2023/01/30 11:50:06;;;;;;;9.90;9.60;;;2.20;99.90;;;;;;6219419;23;20187;-87
2023/01/30 11:56:18;;;;;;;9.97;9.67;;;2.20;99.90;;;;;;6218074;23;20258;-88
2023/01/30 11:58:57;;;;;;;10.00;9.70;;;2.20;99.90;;;;;;6189829;23;20210;-86
2023/01/30 12:02:15;;;;;;;9.60;9.30;;;2.30;99.90;;;;;;6206194;23;20200;-87
2023/01/30 12:07:57;;;;;;;9.67;9.37;;;2.30;99.90;;;;;;6199410;23;20219;-86
2023/01/30 12:10:54;;;;;;;9.70;9.40;;;2.30;99.90;;;;;;6199442;23;20196;-86
2023/01/30 12:13:33;;;;;;;9.70;9.40;;;2.30;99.90;;;;;;6198270;23;20235;-86
2023/01/30 12:23:07;;;;;;;9.97;9.67;;;2.40;99.90;;;;;;6219287;23;20190;-87
2023/01/30 12:25:49;;;;;;;10.00;9.70;;;2.50;99.90;;;;;;6204132;23;20190;-87
2023/01/30 12:28:30;;;;;;;9.80;9.50;;;2.50;99.90;;;;;;6214686;23;20202;-89
2023/01/30 12:31:15;;;;;;;10.00;9.70;;;2.50;99.90;;;;;;6203254;23;20215;-88
2023/01/30 12:33:44;;;;;;;9.97;9.67;;;2.50;99.90;;;;;;6201237;23;20207;-87
2023/01/30 12:39:28;;;;;;;9.90;9.60;;;2.60;99.90;;;;;;6205408;23;20226;-88
2023/01/30 12:42:49;;;;;;;;;;;;;;;;;;;;;
2023/01/30 12:53:04;;;;;;;9.90;9.60;;;2.70;99.90;;;;;;6199791;23;20208;-88
2023/01/30 12:56:01;;;;;;;9.80;9.50;;;2.70;99.90;;;;;;6200397;23;20254;-88
2023/01/30 12:58:57;;;;;;;9.90;9.60;;;2.60;99.90;;;;;;6199986;23;20198;-88
2023/01/30 13:01:34;;;;;;;9.60;9.30;;;2.70;99.90;;;;;;6199434;23;20204;-87
2023/01/30 13:11:45;;;;;;;9.17;8.87;;;2.80;99.90;;;;;;6201168;23;20196;-86
2023/01/30 13:14:39;;;;;;;9.00;8.77;;;3.00;99.90;;;;;;6199396;23;20203;-87
2023/01/30 13:17:45;;;;;;;9.20;8.90;;;3.10;99.90;;;;;;6198935;23;20344;-88
2023/01/30 13:20:42;;;;;;;9.27;8.97;;;3.20;99.90;;;;;;6204394;23;20199;-87
2023/01/30 13:23:46;;;;;;;8.97;8.77;;;3.30;99.90;;;;;;6204508;23;20199;-88
2023/01/30 13:26:55;;;;;;;9.23;8.93;;;3.30;99.90;;;;;;6192721;23;20247;-87
2023/01/30 13:29:45;;;;;;;9.40;9.10;;;3.30;99.90;;;;;;6199459;23;20199;-87
2023/01/30 13:32:41;;;;;;;9.10;8.80;;;3.30;99.90;;;;;;6199147;23;20195;-87
2023/01/30 13:35:18;;;;;;;8.90;8.70;;;3.30;99.90;;;;;;6209418;23;20199;-82
2023/01/30 13:40:43;;;;;;;9.13;8.87;;;3.50;99.90;;;;;;6198899;23;20199;-87
2023/01/30 13:43:22;;;;;;;9.60;9.30;;;3.40;99.90;;;;;;6198793;23;20231;-87
2023/01/30 13:46:00;;;;;;;9.00;8.80;;;3.40;99.90;;;;;;6198718;23;20246;-85
2023/01/30 13:48:56;;;;;;;9.00;8.80;;;3.40;99.90;;;;;;6198933;23;20203;-86
2023/01/30 13:51:42;;;;;;;9.30;9.00;;;3.40;99.90;;;;;;6200817;23;20204;-86
2023/01/30 13:54:28;;;;;;;9.30;9.00;;;3.40;99.90;;;;;;6202319;23;20211;-85
2023/01/30 13:57:07;;;;;;;9.33;9.03;;;3.40;99.90;;;;;;6202517;23;20195;-85
2023/01/30 14:00:06;;;;;;;8.97;8.77;;;3.40;99.90;;;;;;6201868;23;20196;-85
2023/01/30 14:03:27;;;;;;;9.40;9.10;;;3.40;99.90;;;;;;6200883;23;20188;-85
2023/01/30 14:06:38;;;;;;;9.37;9.07;;;3.30;99.90;;;;;;6199937;23;20282;-85
2023/01/30 14:09:25;;;;;;;9.57;9.27;;;3.30;99.90;;;;;;6200893;23;20200;-86
2023/01/30 14:12:00;;;;;;;9.30;9.00;;;3.30;99.90;;;;;;6200675;23;20226;-87
2023/01/30 14:14:35;;;;;;;9.10;8.87;;;3.20;99.90;;;;;;6200677;23;20202;-85
2023/01/30 14:17:18;;;;;;;9.20;8.90;;;3.30;99.90;;;;;;6196248;23;20195;-85
2023/01/30 14:20:07;;;;;;;9.50;9.20;;;3.30;99.90;;;;;;6199675;23;20195;-84
2023/01/30 14:22:44;;;;;;;8.70;8.50;;;3.20;99.90;;;;;;6200811;23;20183;-83
2023/01/30 14:25:51;;;;;;;8.50;8.30;;;3.20;99.90;;;;;;6199665;23;20206;-85
2023/01/30 14:28:54;;;;;;;8.77;8.57;;;3.40;99.90;;;;;;6199177;23;20199;-83
2023/01/30 14:31:51;;;;;;;8.80;8.60;;;3.50;99.90;;;;;;6200266;23;20599;-86
2023/01/30 14:35:20;;;;;;;8.63;8.43;;;3.80;99.90;;;;;;6199090;23;20203;-86
2023/01/30 14:37:52;;;;;;;9.30;9.00;;;4.00;99.90;;;;;;6116445;23;20209;-84
2023/01/30 14:40:47;;;;;;;9.10;8.90;;;3.90;99.90;;;;;;6220858;23;20203;-84
2023/01/30 14:43:51;;;;;;;9.40;9.10;;;3.80;99.90;;;;;;6218228;23;20211;-85
2023/01/30 14:46:48;;;;;;;9.27;8.97;;;3.70;99.90;;;;;;6210525;23;20179;-84
2023/01/30 14:49:34;;;;;;;9.17;8.87;;;3.50;99.90;;;;;;6202104;23;20202;-85
2023/01/30 14:52:27;;;;;;;9.30;9.00;;;3.60;99.90;;;;;;6200650;23;20188;-86
2023/01/30 14:55:00;;;;;;;9.30;9.00;;;3.60;99.90;;;;;;6199391;23;20199;-85
2023/01/30 14:57:31;;;;;;;8.60;8.40;;;3.60;99.90;;;;;;6199582;23;20659;-84
2023/01/30 15:00:07;;;;;;;9.40;9.10;;;3.70;99.90;;;;;;6197890;23;20196;-84
2023/01/30 15:02:42;;;;;;;9.77;9.47;;;3.80;99.90;;;;;;6199628;23;20218;-79
2023/01/30 15:05:17;;;;;;;9.80;9.50;;;3.80;99.90;;;;;;6200248;23;20187;-81
2023/01/30 15:07:55;;;;;;;9.47;9.17;;;3.80;99.90;;;;;;6198758;23;20207;-84
2023/01/30 15:11:02;;;;;;;9.50;9.20;;;3.60;99.90;;;;;;6198522;23;20198;-85
2023/01/30 15:13:47;;;;;;;9.30;9.00;;;3.50;99.90;;;;;;6198890;23;20207;-84
2023/01/30 15:16:52;;;;;;;9.40;9.10;;;3.40;99.90;;;;;;6198031;23;20195;-85
2023/01/30 15:19:48;;;;;;;9.30;9.00;;;3.30;99.90;;;;;;6197939;23;20199;-85
2023/01/30 15:22:27;;;;;;;9.00;8.80;;;3.20;99.90;;;;;;6197865;23;20196;-85
2023/01/30 15:25:30;;;;;;;8.90;8.70;;;3.20;99.90;;;;;;6199583;23;20202;-85
2023/01/30 15:28:19;;;;;;;9.03;8.80;;;3.20;99.90;;;;;;6199465;23;20222;-86
2023/01/30 15:30:58;;;;;;;9.07;8.80;;;3.10;99.90;;;;;;6199340;23;20183;-85
2023/01/30 15:33:27;;;;;;;9.33;9.03;;;3.10;99.90;;;;;;6199333;23;20207;-86
2023/01/30 15:35:55;;;;;;;9.20;8.90;;;3.10;99.90;;;;;;6201419;23;20289;-86
2023/01/30 15:38:32;;;;;;;9.13;8.87;;;3.10;99.90;;;;;;6202177;23;20215;-86
2023/01/30 15:41:10;;;;;;;8.60;8.40;;;3.10;99.90;;;;;;6200493;23;20187;-85
2023/01/30 15:44:33;;;;;;;8.77;8.57;;;3.10;99.90;;;;;;6197289;23;20234;-84
2023/01/30 15:47:38;;;;;;;9.00;8.80;;;3.10;99.90;;;;;;6176128;23;20258;-85
2023/01/30 15:50:09;;;;;;;8.87;8.67;;;3.00;99.90;;;;;;6189284;23;20285;-83
2023/01/30 15:52:47;;;;;;;9.00;8.77;;;3.00;99.90;;;;;;6202857;23;20223;-83
2023/01/30 15:55:24;;;;;;;8.70;8.50;;;3.00;99.90;;;;;;6203069;23;20196;-83
2023/01/30 15:58:07;;;;;;;8.70;8.50;;;3.00;99.90;;;;;;6202165;23;20223;-83
2023/01/30 16:00:41;;;;;;;8.90;8.70;;;3.00;99.90;;;;;;6204552;23;20199;-84
2023/01/30 16:03:19;;;;;;;8.90;8.70;;;3.00;99.90;;;;;;6207550;23;20211;-84
2023/01/30 16:05:49;;;;;;;8.87;8.67;;;3.00;99.90;;;;;;6204042;23;20275;-83
2023/01/30 16:08:26;;;;;;;8.80;8.60;;;3.00;99.90;;;;;;6208853;23;20219;-87
2023/01/30 16:10:55;;;;;;;8.80;8.60;;;3.00;99.90;;;;;;6207151;23;20195;-84
2023/01/30 16:13:32;;;;;;;8.70;8.50;;;3.00;99.90;;;;;;6203101;23;20207;-84
2023/01/30 16:16:06;;;;;;;8.07;7.87;;;3.00;99.90;;;;;;6203228;23;20195;-85
2023/01/30 16:18:40;;;;;;;8.60;8.40;;;3.00;99.90;;;;;;6203144;23;20196;-83
2023/01/30 16:21:20;;;;;;;8.83;8.63;;;3.00;99.90;;;;;;6202432;23;20201;-87
2023/01/30 16:23:57;;;;;;;9.20;8.90;;;3.00;99.90;;;;;;6201077;23;20199;-86
2023/01/30 16:26:26;;;;;;;8.67;8.47;;;3.00;99.90;;;;;;6202132;23;20250;-83
2023/01/30 16:29:06;;;;;;;8.43;8.23;;;3.00;99.90;;;;;;6202530;23;20196;-83
2023/01/30 16:31:35;;;;;;;8.47;8.27;;;3.00;99.90;;;;;;6201758;23;20191;-85
2023/01/30 16:34:08;;;;;;;8.20;8.00;;;3.00;99.90;;;;;;6202000;23;20280;-83
2023/01/30 16:36:42;;;;;;;8.20;8.00;;;3.00;99.90;;;;;;6205448;23;20282;-83
2023/01/30 16:39:38;;;;;;;8.30;8.10;;;2.90;99.90;;;;;;6212737;23;20279;-85
2023/01/30 16:42:25;;;;;;;8.50;8.30;;;3.00;99.90;;;;;;6211952;23;20192;-86
2023/01/30 16:45:48;;;;;;;8.60;8.40;;;3.00;99.90;;;;;;6199288;23;20220;-86
2023/01/30 16:48:34;;;;;;;9.10;8.80;;;2.90;99.90;;;;;;6204970;23;20211;-84
2023/01/30 16:51:20;;;;;;;8.50;8.30;;;2.90;99.90;;;;;;6201202;23;20199;-85
2023/01/30 16:53:59;;;;;;;8.57;8.37;;;2.90;99.90;;;;;;6203012;23;20266;-85
2023/01/30 16:56:29;;;;;;;8.47;8.27;;;2.90;99.90;;;;;;6210555;23;20195;-83
2023/01/30 16:59:03;;;;;;;8.77;8.57;;;2.90;99.90;;;;;;6212311;23;20192;-83
2023/01/30 17:01:48;;;;;;;8.70;8.50;;;2.90;99.90;;;;;;6206323;23;20198;-85
2023/01/30 17:04:28;;;;;;;8.60;8.40;;;2.90;99.90;;;;;;6201623;23;20200;-84
2023/01/30 17:07:07;;;;;;;8.80;8.60;;;2.90;99.90;;;;;;6201638;23;20199;-83
2023/01/30 17:09:47;;;;;;;8.70;8.50;;;2.90;99.90;;;;;;6200934;23;20246;-84
2023/01/30 17:12:38;;;;;;;8.80;8.60;;;3.00;99.90;;;;;;6201158;23;20196;-84
2023/01/30 17:15:42;;;;;;;8.50;8.30;;;3.00;99.90;;;;;;6199798;23;20196;-84
2023/01/30 17:18:21;;;;;;;8.50;8.30;;;3.00;99.90;;;;;;6117832;23;20186;-84
2023/01/30 17:20:50;;;;;;;9.20;8.90;;;3.00;99.90;;;;;;6117676;23;20205;-83
2023/01/30 17:23:21;;;;;;;8.43;8.23;;;3.00;99.90;;;;;;6166831;23;20206;-84
2023/01/30 17:25:49;;;;;;;8.77;8.57;;;3.00;99.90;;;;;;6203143;23;20242;-85
2023/01/30 17:28:29;;;;;;;8.83;8.63;;;3.00;99.90;;;;;;6202884;23;20192;-85
2023/01/30 17:30:58;;;;;;;8.80;8.60;;;3.00;99.90;;;;;;6205335;23;20191;-83
2023/01/30 17:33:28;;;;;;;8.40;8.20;;;3.10;99.90;;;;;;6207095;23;20207;-83
2023/01/30 17:35:58;;;;;;;8.50;8.30;;;3.10;99.90;;;;;;6203062;23;20226;-85
2023/01/30 17:38:28;;;;;;;8.23;8.03;;;3.10;99.90;;;;;;6204084;23;20215;-85
2023/01/30 17:40:55;;;;;;;8.40;8.20;;;3.10;99.90;;;;;;6206618;23;20291;-85
2023/01/30 17:43:23;;;;;;;8.63;8.43;;;3.10;99.90;;;;;;6207824;23;20222;-83
2023/01/30 17:45:53;;;;;;;8.73;8.53;;;3.10;99.90;;;;;;6205238;23;20235;-85
2023/01/30 22:33:42;;;;;;;9.30;9.00;;;3.60;99.90;;;;;;6211815;22;20205;-85
2023/01/30 22:47:47;;;;;;;9.40;9.10;;;3.50;99.90;;;;;;6322376;22;20192;-86
2023/01/30 23:31:28;;;;;;;9.83;9.53;;;3.70;99.90;;;;;;6295966;22;20212;-86
2023/01/30 23:50:55;;;;;;;9.70;9.40;;;3.50;99.90;;;;;;6189220;22;20267;-84
2023/01/30 23:53:25;;;;;;;9.80;9.50;;;3.50;99.90;;;;;;6178437;23;20204;-83
2023/01/30 23:55:55;;;;;;;9.63;9.33;;;3.50;99.90;;;;;;6176196;23;20200;-84
2023/01/30 23:58:24;;;;;;;9.70;9.40;;;3.50;99.90;;;;;;6170290;22;20271;-85
